Tisdag 2021-08-03 16:04:19 vecka 31, namnsdag Tage, imorgon Arne, Arnold  [Huvudmeny]   minomax.se   minomax.se/metar   minomax.se/flyg   wwwinfo.se   medd.nu  -  meddelanden   kakor METAR-data Visa METAR-temperaturer och data
Land: skriv landsbeteckning, 2 bokstäver, tex. se för Sverige. Sök land Sökord: skriv sökord, eller lämna tomt så visas alla Visar METAR för SE- Sverige Land/ IATA/ICAO Id Flygplats Temp Tid Datum region METAR... ---- ------------------------- ---- ----- ---------- ------ --- ------------... ESCF Linköping/Malmen Air Base 18 15:20 2021-08-03 SE-E --- ESCF 031320Z AUTO 06003KT 340V110 9999 OVC072/// 18/03 Q1010= ESCM Uppsala Airport 18 15:20 2021-08-03 SE-C --- ESCM 031320Z 34009KT CAVOK 18/04 Q1009= ESDF Ronneby Airport 18 15:20 2021-08-03 SE-K RNB ESDF 031320Z 20007KT 170V250 9999 VCSH SCT031 18/13 Q1011= ESGG Gothenburg-Landvetter Air 17 15:20 2021-08-03 SE-Q GOT ESGG 031320Z 20009KT 160V250 9999 FEW033CB 17/09 Q1010= ESGJ Jönköping Airport 19 15:20 2021-08-03 SE-F JKG ESGJ 031320Z AUTO 10004KT 060V140 9999 BKN057/// 19/09 Q1010=
ESGR Skövde Airport 18 15:20 2021-08-03 SE-Q KVB ESGR 031320Z AUTO 36004KT 9999 SCT074/// 18/04 Q1010= ESGT Trollhättan-Vänersborg Ai 19 15:20 2021-08-03 SE-Q THN ESGT 031320Z AUTO 01008KT 340V040 9999 R15///// R33/P2000N OVC062/// 19/07 Q1010= ESIA Karlsborg Air Base 17 15:20 2021-08-03 SE-Q --- ESIA 031320Z AUTO 15006KT 9999 BKN066/// 17/05 Q1011= ESIB Såtenäs Air Base 19 15:20 2021-08-03 SE-Q --- ESIB 031320Z AUTO 01009KT 9999 BKN072/// 19/08 Q1010= ESKM Mora Airport 17 15:20 2021-08-03 SE-W MXX ESKM 031320Z AUTO VRB03KT 9999 SCT053/// OVC074/// 17/05 Q1010=
ESKN Stockholm / Nyköping/Stoc 18 15:20 2021-08-03 SE-D NYO ESKN 031320Z 32009KT CAVOK 18/04 Q1010= ESKS Sälen - Trysil Airport 12 15:20 2021-08-03 SE-W SCR ESKS 031320Z AUTO VRB03KT 9999 OVC046/// 12/04 Q1010= ESMK Kristianstad Airport 18 15:20 2021-08-03 SE-M KID ESMK 031320Z 26006KT 220V310 9999 SCT030 BKN062 BKN072 18/12 Q1012= ESMQ Kalmar Airport 18 15:20 2021-08-03 SE-H KLR ESMQ 031320Z 17011KT CAVOK 18/11 Q1011= ESMS Malmö Sturup Airport 18 15:20 2021-08-03 SE-M MMX ESMS 031320Z 29007KT 9999 SCT048 BKN062 18/09 Q1012=
ESMT Halmstad Airport 18 15:20 2021-08-03 SE-N HAD ESMT 031320Z 27007KT 230V320 9999 FEW033 SCT038 18/09 Q1012= ESMX Växjö Kronoberg Airport 17 15:20 2021-08-03 SE-G VXO ESMX 031320Z 29005KT 250V320 9999 BKN033 17/11 Q1011= ESND Sveg Airport 16 15:20 2021-08-03 SE-Z EVG ESND 031320Z AUTO 33005KT 280V060 9999 SCT066/// 16/16 Q1010= ESNG Gällivare Airport 16 15:20 2021-08-03 SE-BD GEV ESNG 031320Z 32012KT CAVOK 16/M02 Q1005= ESNK Kramfors / Sollefteå/Kram 17 15:20 2021-08-03 SE-Y KRF ESNK 031320Z AUTO 30012KT 9999 // BKN072/// 17/02 Q1008=
ESNL Lycksele Airport 18 15:50 2021-08-03 SE-AC LYC ESNL 031350Z 33013KT 280V350 9999 FEW052 SCT064 18/02 Q1006= ESNN Sundsvall/ Härnösand/Sund 17 15:20 2021-08-03 SE-Y SDL ESNN 031320Z AUTO 33011KT 270V010 9999 OVC066/// 17/03 Q1008= ESNO Örnsköldsvik Airport 19 15:20 2021-08-03 SE-Y OER ESNO 031320Z AUTO 30010KT 9999 FEW064/// SCT076/// 19/03 Q1006= ESNQ Kiruna Airport 14 15:20 2021-08-03 SE-BD KRN ESNQ 031320Z 35009KT 310V020 CAVOK 14/01 Q1006= ESNS Skellefteå Airport 18 15:20 2021-08-03 SE-AC SFT ESNS 031320Z 34010KT CAVOK 18/02 Q1004=
ESNU Umeå Airport 18 15:20 2021-08-03 SE-AC UME ESNU 031320Z 34010KT CAVOK 18/03 Q1005= ESNV Vilhelmina Airport 14 15:20 2021-08-03 SE-AC VHM ESNV 031320Z AUTO 30008KT 9999 BKN061/// 14/03 Q1008= ESNX Arvidsjaur Airport 15 15:50 2021-08-03 SE-BD AJR ESNX 031350Z AUTO 30011KT 9999 OVC064/// 15/00 Q1006= ESNZ Åre Östersund Airport 14 15:20 2021-08-03 SE-Z OSD ESNZ 031320Z 28013KT 9999 SCT050 14/02 Q1010= ESOE Örebro Airport 19 15:20 2021-08-03 SE-T ORB ESOE 031320Z AUTO 36005KT 9999 FEW070/// 19/03 Q1010=
ESOH Hagfors Airport 18 15:20 2021-08-03 SE-S HFS ESOH 031320Z AUTO VRB01KT 9999 BKN098/// 18/04 Q1010= ESOK Karlstad Airport 18 15:20 2021-08-03 SE-S KSD ESOK 031320Z 18002KT CAVOK 18/05 Q1010= ESOW Stockholm Västerås Airpor 18 15:20 2021-08-03 SE-U VST ESOW 031320Z 34009KT 300V360 CAVOK 18/03 Q1010= ESPA Luleå Airport 19 15:20 2021-08-03 SE-BD LLA ESPA 031320Z 34015KT 320V030 CAVOK 19/01 Q1003= ESPE Vidsel Air Base 16 (10:50 2021-08-01) SE-BD --- ESPE 010850Z AUTO 28008KT 240V320 9999 Xz 100 36622 46342 0 0 0.00 31.60 17.1 ///// SCT028/// BKN044/// 16/10 Q0995=
ESSA Stockholm-Arlanda Airport 17 15:20 2021-08-03 SE-AB ARN ESSA 031320Z 33008KT CAVOK 17/02 Q1009 NOSIG= ESSB Stockholm-Bromma Airport 19 15:20 2021-08-03 SE-AB BMA ESSB 031320Z 30009KT 270V340 CAVOK 19/04 Q1010= ESSD Borlange Airport 16 15:20 2021-08-03 SE-W BLE ESSD 031320Z 31008KT CAVOK 16/06 Q1010= ESSL Linköping City Airport 19 15:20 2021-08-03 SE-E LPI ESSL 031320Z 27004KT 230V320 CAVOK 19/03 Q1010= ESSP Norrköping Airport 20 15:20 2021-08-03 SE-E NRK ESSP 031320Z 36005KT 320V060 CAVOK 20/04 Q1010=
ESST Torsby Airport 18 15:20 2021-08-03 SE-S TYF ESST 031320Z AUTO 15004KT 090V210 9999 SCT059/// OVC090/// 18/07 Q1011= ESSV Visby Airport 18 15:20 2021-08-03 SE-I VBY ESSV 031320Z 29006KT 260V360 CAVOK 18/06 Q1011= ESTA Ängelholm-Helsingborg Air 17 15:20 2021-08-03 SE-M AGH ESTA 031320Z 25007KT 9999 FEW029 SCT060 17/11 Q1012= ESTL Ljungbyhed Airport 18 15:20 2021-08-03 SE-M --- ESTL 031320Z AUTO 27006KT 9999 FEW045/// SCT053/// BKN067/// 18/12 Q1012= ESUP Pajala Airport 13 (09:50 2021-08-03) SE-BD PJA ESUP 030750Z AUTO 35009KT 320V030 9999 // ///////// 13/01 Q1005=
ESUT Hemavan Airport 11 15:50 2021-08-03 SE-AC HMV ESUT 031350Z AUTO 31007KT 290V350 9999 BKN049/// 11/04 Q1009= (46 rader visades) Du kan lägga till id-beteckningen först på raden i valfri Lista 1 - 5 [top] ↕°C [1] [2] [3] [4] [5] ??? LISTOR 00-nr NOT MEDD MT METAR SYNOP SE SE-AB SE-C SE-D SE-E SE-F SE-G SE-H SE-I SE-K SE-M SE-N SE-O SE-P SE-T SE-U SE-W SE-X SE-Y SE-Z SE-AC SE-BD rådata flyg flyg_osd